sensor_id;sensor_type;location;lat;lon;timestamp;pressure;altitude;pressure_sealevel;temperature;humidity
41260;BME280;26993;48.958;9.330;2022-08-25T00:02:29;98515.63;;;20.84;74.53
41260;BME280;26993;48.958;9.330;2022-08-25T00:05:15;98521.56;;;20.87;74.46
41260;BME280;26993;48.958;9.330;2022-08-25T00:08:03;98521.72;;;20.62;74.83
41260;BME280;26993;48.958;9.330;2022-08-25T00:10:52;98519.03;;;20.43;75.29
41260;BME280;26993;48.958;9.330;2022-08-25T00:13:41;98520.78;;;20.42;75.41
41260;BME280;26993;48.958;9.330;2022-08-25T00:16:29;98505.66;;;20.28;76.06
41260;BME280;26993;48.958;9.330;2022-08-25T00:19:19;98512.25;;;20.15;76.55
41260;BME280;26993;48.958;9.330;2022-08-25T00:22:07;98505.56;;;20.08;77.33
41260;BME280;26993;48.958;9.330;2022-08-25T00:24:53;98504.19;;;19.99;77.46
41260;BME280;26993;48.958;9.330;2022-08-25T00:27:42;98506.00;;;19.97;77.62
41260;BME280;26993;48.958;9.330;2022-08-25T00:30:29;98506.47;;;20.07;77.87
41260;BME280;26993;48.958;9.330;2022-08-25T00:33:17;98506.19;;;19.92;77.94
41260;BME280;26993;48.958;9.330;2022-08-25T00:36:04;98506.88;;;19.97;78.35
41260;BME280;26993;48.958;9.330;2022-08-25T00:38:50;98510.50;;;19.93;78.42
41260;BME280;26993;48.958;9.330;2022-08-25T00:41:39;98514.03;;;19.69;79.31
41260;BME280;26993;48.958;9.330;2022-08-25T00:44:29;98505.91;;;19.76;79.38
41260;BME280;26993;48.958;9.330;2022-08-25T00:47:17;98515.63;;;19.73;79.21
41260;BME280;26993;48.958;9.330;2022-08-25T00:50:06;98514.38;;;19.59;79.76
41260;BME280;26993;48.958;9.330;2022-08-25T00:52:56;98511.84;;;19.58;79.58
41260;BME280;26993;48.958;9.330;2022-08-25T00:55:43;98511.47;;;19.67;79.72
41260;BME280;26993;48.958;9.330;2022-08-25T00:58:31;98515.53;;;19.52;79.78
41260;BME280;26993;48.958;9.330;2022-08-25T01:01:21;98507.06;;;19.45;79.99
41260;BME280;26993;48.958;9.330;2022-08-25T01:04:07;98511.66;;;19.39;80.75
41260;BME280;26993;48.958;9.330;2022-08-25T01:06:55;98512.50;;;19.39;80.79
41260;BME280;26993;48.958;9.330;2022-08-25T01:09:43;98502.13;;;19.38;80.48
41260;BME280;26993;48.958;9.330;2022-08-25T01:12:31;98503.19;;;19.32;81.02
41260;BME280;26993;48.958;9.330;2022-08-25T01:15:18;98511.75;;;19.36;81.00
41260;BME280;26993;48.958;9.330;2022-08-25T01:18:07;98505.97;;;19.27;81.40
41260;BME280;26993;48.958;9.330;2022-08-25T01:20:56;98506.88;;;19.26;81.76
41260;BME280;26993;48.958;9.330;2022-08-25T01:23:43;98500.00;;;19.24;81.43
41260;BME280;26993;48.958;9.330;2022-08-25T01:26:33;98503.47;;;19.24;81.60
41260;BME280;26993;48.958;9.330;2022-08-25T01:29:19;98493.59;;;19.09;82.52
41260;BME280;26993;48.958;9.330;2022-08-25T01:32:09;98498.41;;;19.20;82.48
41260;BME280;26993;48.958;9.330;2022-08-25T01:34:56;98496.94;;;19.36;81.61
41260;BME280;26993;48.958;9.330;2022-08-25T01:37:44;98497.75;;;19.38;81.50
41260;BME280;26993;48.958;9.330;2022-08-25T01:40:32;98498.53;;;19.40;81.58
41260;BME280;26993;48.958;9.330;2022-08-25T01:43:25;98497.06;;;19.33;81.95
41260;BME280;26993;48.958;9.330;2022-08-25T01:46:15;98495.13;;;19.38;81.47
41260;BME280;26993;48.958;9.330;2022-08-25T01:49:02;98494.69;;;19.27;82.19
41260;BME280;26993;48.958;9.330;2022-08-25T01:51:52;98498.13;;;19.27;82.40
41260;BME280;26993;48.958;9.330;2022-08-25T01:54:43;98494.69;;;19.27;82.47
41260;BME280;26993;48.958;9.330;2022-08-25T01:57:30;98493.03;;;19.24;82.64
41260;BME280;26993;48.958;9.330;2022-08-25T02:00:18;98499.19;;;19.22;82.93
41260;BME280;26993;48.958;9.330;2022-08-25T02:03:05;98496.56;;;19.23;82.58
41260;BME280;26993;48.958;9.330;2022-08-25T02:05:53;98501.66;;;19.26;82.99
41260;BME280;26993;48.958;9.330;2022-08-25T02:08:40;98488.56;;;19.28;82.58
41260;BME280;26993;48.958;9.330;2022-08-25T02:11:28;98491.38;;;19.22;82.82
41260;BME280;26993;48.958;9.330;2022-08-25T02:14:16;98493.38;;;19.15;83.59
41260;BME280;26993;48.958;9.330;2022-08-25T02:17:05;98495.28;;;19.10;83.78
41260;BME280;26993;48.958;9.330;2022-08-25T02:19:52;98492.91;;;19.27;83.22
41260;BME280;26993;48.958;9.330;2022-08-25T02:22:40;98492.69;;;19.10;83.94
41260;BME280;26993;48.958;9.330;2022-08-25T02:25:26;98493.03;;;19.24;83.64
41260;BME280;26993;48.958;9.330;2022-08-25T02:28:14;98487.84;;;19.23;83.44
41260;BME280;26993;48.958;9.330;2022-08-25T02:31:02;98494.91;;;19.21;83.89
41260;BME280;26993;48.958;9.330;2022-08-25T02:33:49;98496.81;;;19.15;83.97
41260;BME280;26993;48.958;9.330;2022-08-25T02:36:37;98493.59;;;19.09;84.41
41260;BME280;26993;48.958;9.330;2022-08-25T02:39:24;98491.59;;;19.15;83.97
41260;BME280;26993;48.958;9.330;2022-08-25T02:42:10;98488.47;;;19.06;84.78
41260;BME280;26993;48.958;9.330;2022-08-25T02:44:59;98486.91;;;19.00;84.72
41260;BME280;26993;48.958;9.330;2022-08-25T02:47:46;98487.66;;;19.03;84.64
41260;BME280;26993;48.958;9.330;2022-08-25T02:50:33;98488.31;;;19.10;84.60
41260;BME280;26993;48.958;9.330;2022-08-25T02:53:20;98483.34;;;19.02;84.79
41260;BME280;26993;48.958;9.330;2022-08-25T02:56:09;98493.69;;;19.06;84.13
41260;BME280;26993;48.958;9.330;2022-08-25T02:58:57;98493.34;;;18.90;84.03
41260;BME280;26993;48.958;9.330;2022-08-25T03:01:45;98487.41;;;18.84;84.34
41260;BME280;26993;48.958;9.330;2022-08-25T03:04:32;98481.78;;;18.71;84.32
41260;BME280;26993;48.958;9.330;2022-08-25T03:07:19;98490.78;;;18.63;84.71
41260;BME280;26993;48.958;9.330;2022-08-25T03:10:08;98488.06;;;18.66;85.46
41260;BME280;26993;48.958;9.330;2022-08-25T03:12:56;98491.34;;;18.46;86.41
41260;BME280;26993;48.958;9.330;2022-08-25T03:15:43;98485.06;;;18.51;86.27
41260;BME280;26993;48.958;9.330;2022-08-25T03:18:31;98485.28;;;18.45;86.83
41260;BME280;26993;48.958;9.330;2022-08-25T03:21:18;98481.94;;;18.42;86.83
41260;BME280;26993;48.958;9.330;2022-08-25T03:24:06;98487.44;;;18.32;87.19
41260;BME280;26993;48.958;9.330;2022-08-25T03:26:53;98492.44;;;18.12;86.96
41260;BME280;26993;48.958;9.330;2022-08-25T03:29:40;98497.00;;;18.05;87.60
41260;BME280;26993;48.958;9.330;2022-08-25T03:32:27;98494.44;;;18.03;87.38
41260;BME280;26993;48.958;9.330;2022-08-25T03:35:16;98489.63;;;17.89;88.03
41260;BME280;26993;48.958;9.330;2022-08-25T03:38:04;98493.13;;;17.88;88.53
41260;BME280;26993;48.958;9.330;2022-08-25T03:40:51;98499.09;;;17.92;87.47
41260;BME280;26993;48.958;9.330;2022-08-25T03:43:38;98495.41;;;17.71;88.21
41260;BME280;26993;48.958;9.330;2022-08-25T03:46:27;98501.81;;;17.59;88.80
41260;BME280;26993;48.958;9.330;2022-08-25T03:49:16;98503.94;;;17.46;89.47
41260;BME280;26993;48.958;9.330;2022-08-25T03:52:05;98509.66;;;17.59;89.31
41260;BME280;26993;48.958;9.330;2022-08-25T03:54:51;98505.81;;;17.41;89.75
41260;BME280;26993;48.958;9.330;2022-08-25T03:57:38;98505.38;;;17.25;91.14
41260;BME280;26993;48.958;9.330;2022-08-25T04:00:25;98495.53;;;17.36;89.66
41260;BME280;26993;48.958;9.330;2022-08-25T04:03:12;98495.66;;;17.32;90.38
41260;BME280;26993;48.958;9.330;2022-08-25T04:06:00;98496.16;;;17.44;90.44
41260;BME280;26993;48.958;9.330;2022-08-25T04:08:48;98483.66;;;17.27;90.76
41260;BME280;26993;48.958;9.330;2022-08-25T04:11:36;98485.38;;;17.27;90.82
41260;BME280;26993;48.958;9.330;2022-08-25T04:14:23;98480.25;;;17.24;91.29
41260;BME280;26993;48.958;9.330;2022-08-25T04:17:10;98483.19;;;17.11;91.87
41260;BME280;26993;48.958;9.330;2022-08-25T04:19:57;98479.81;;;17.08;92.46
41260;BME280;26993;48.958;9.330;2022-08-25T04:22:44;98479.66;;;17.14;92.22
41260;BME280;26993;48.958;9.330;2022-08-25T04:25:32;98472.97;;;17.05;91.35
41260;BME280;26993;48.958;9.330;2022-08-25T04:28:19;98481.97;;;16.92;91.97
41260;BME280;26993;48.958;9.330;2022-08-25T04:31:06;98482.88;;;16.91;91.42
41260;BME280;26993;48.958;9.330;2022-08-25T04:33:54;98489.25;;;16.79;91.41
41260;BME280;26993;48.958;9.330;2022-08-25T04:36:40;98493.63;;;16.78;92.02
41260;BME280;26993;48.958;9.330;2022-08-25T04:39:27;98494.06;;;16.94;92.26
41260;BME280;26993;48.958;9.330;2022-08-25T04:42:15;98486.47;;;16.85;92.47
41260;BME280;26993;48.958;9.330;2022-08-25T04:45:03;98484.81;;;16.83;92.55
41260;BME280;26993;48.958;9.330;2022-08-25T04:47:50;98483.75;;;16.90;92.69
41260;BME280;26993;48.958;9.330;2022-08-25T04:50:37;98479.66;;;16.81;92.73
41260;BME280;26993;48.958;9.330;2022-08-25T04:53:24;98492.84;;;16.75;92.78
41260;BME280;26993;48.958;9.330;2022-08-25T04:56:13;98497.25;;;16.71;92.75
41260;BME280;26993;48.958;9.330;2022-08-25T04:59:04;98498.16;;;16.70;93.69
41260;BME280;26993;48.958;9.330;2022-08-25T05:01:51;98495.63;;;16.67;94.71
41260;BME280;26993;48.958;9.330;2022-08-25T05:04:38;98495.63;;;16.67;94.92
41260;BME280;26993;48.958;9.330;2022-08-25T05:07:25;98493.75;;;16.72;94.66
41260;BME280;26993;48.958;9.330;2022-08-25T05:10:11;98497.78;;;16.84;94.39
41260;BME280;26993;48.958;9.330;2022-08-25T05:12:58;98500.09;;;16.96;94.27
41260;BME280;26993;48.958;9.330;2022-08-25T05:15:52;98496.50;;;17.01;93.90
41260;BME280;26993;48.958;9.330;2022-08-25T05:18:39;98501.38;;;17.13;93.06
41260;BME280;26993;48.958;9.330;2022-08-25T05:21:27;98495.09;;;17.20;92.96
41260;BME280;26993;48.958;9.330;2022-08-25T05:24:14;98498.47;;;17.24;93.18
41260;BME280;26993;48.958;9.330;2022-08-25T05:27:01;98488.19;;;17.51;92.31
41260;BME280;26993;48.958;9.330;2022-08-25T05:29:48;98479.47;;;17.80;90.76
41260;BME280;26993;48.958;9.330;2022-08-25T05:32:36;98468.22;;;18.87;86.80
41260;BME280;26993;48.958;9.330;2022-08-25T05:35:23;98459.56;;;19.80;82.74
41260;BME280;26993;48.958;9.330;2022-08-25T05:38:09;98450.38;;;19.93;81.65
41260;BME280;26993;48.958;9.330;2022-08-25T05:40:57;98457.53;;;21.34;77.86
41260;BME280;26993;48.958;9.330;2022-08-25T05:43:45;98449.09;;;24.36;67.34
41260;BME280;26993;48.958;9.330;2022-08-25T05:46:33;98448.34;;;26.73;60.90
41260;BME280;26993;48.958;9.330;2022-08-25T05:49:21;98437.81;;;28.82;55.58
41260;BME280;26993;48.958;9.330;2022-08-25T05:52:07;98435.56;;;30.01;52.65
41260;BME280;26993;48.958;9.330;2022-08-25T05:54:54;98437.19;;;31.29;50.02
41260;BME280;26993;48.958;9.330;2022-08-25T05:57:41;98430.25;;;31.57;48.58
41260;BME280;26993;48.958;9.330;2022-08-25T06:00:28;98435.06;;;31.73;48.86
41260;BME280;26993;48.958;9.330;2022-08-25T06:03:15;98435.75;;;31.15;49.66
41260;BME280;26993;48.958;9.330;2022-08-25T06:06:06;98427.53;;;28.66;53.53
41260;BME280;26993;48.958;9.330;2022-08-25T06:08:52;98439.50;;;27.00;57.49
41260;BME280;26993;48.958;9.330;2022-08-25T06:11:40;98436.44;;;25.02;63.00
41260;BME280;26993;48.958;9.330;2022-08-25T06:14:27;98447.13;;;23.77;67.29
41260;BME280;26993;48.958;9.330;2022-08-25T06:17:14;98442.97;;;22.91;70.16
41260;BME280;26993;48.958;9.330;2022-08-25T06:20:01;98449.28;;;22.34;72.29
41260;BME280;26993;48.958;9.330;2022-08-25T06:22:52;98440.97;;;22.26;72.94
41260;BME280;26993;48.958;9.330;2022-08-25T06:25:39;98439.03;;;22.12;73.46
41260;BME280;26993;48.958;9.330;2022-08-25T06:28:25;98448.91;;;22.07;73.98
41260;BME280;26993;48.958;9.330;2022-08-25T06:31:13;98453.31;;;21.87;74.53
41260;BME280;26993;48.958;9.330;2022-08-25T06:36:46;98457.78;;;22.22;73.77
41260;BME280;26993;48.958;9.330;2022-08-25T06:39:36;98452.19;;;22.47;73.15
41260;BME280;26993;48.958;9.330;2022-08-25T06:42:22;98453.06;;;22.48;73.24
41260;BME280;26993;48.958;9.330;2022-08-25T06:45:09;98457.13;;;22.54;73.03
41260;BME280;26993;48.958;9.330;2022-08-25T06:47:56;98452.28;;;22.63;72.64
41260;BME280;26993;48.958;9.330;2022-08-25T06:50:46;98453.00;;;22.30;73.24
41260;BME280;26993;48.958;9.330;2022-08-25T06:53:33;98449.97;;;22.40;73.55
41260;BME280;26993;48.958;9.330;2022-08-25T06:56:21;98456.13;;;22.74;72.76
41260;BME280;26993;48.958;9.330;2022-08-25T06:59:08;98452.78;;;22.88;72.47
41260;BME280;26993;48.958;9.330;2022-08-25T07:01:56;98439.72;;;23.20;71.70
41260;BME280;26993;48.958;9.330;2022-08-25T07:04:43;98449.34;;;23.37;70.52
41260;BME280;26993;48.958;9.330;2022-08-25T07:07:30;98439.44;;;23.42;70.10
41260;BME280;26993;48.958;9.330;2022-08-25T07:10:17;98446.69;;;23.21;70.36
41260;BME280;26993;48.958;9.330;2022-08-25T07:13:05;98443.13;;;23.22;70.83
41260;BME280;26993;48.958;9.330;2022-08-25T07:15:53;98433.44;;;23.56;69.70
41260;BME280;26993;48.958;9.330;2022-08-25T07:18:40;98431.78;;;23.85;69.08
41260;BME280;26993;48.958;9.330;2022-08-25T07:21:29;98428.56;;;23.96;68.46
41260;BME280;26993;48.958;9.330;2022-08-25T07:24:16;98430.81;;;24.18;67.50
41260;BME280;26993;48.958;9.330;2022-08-25T07:27:03;98425.88;;;24.28;66.72
41260;BME280;26993;48.958;9.330;2022-08-25T07:29:51;98432.09;;;24.42;66.77
41260;BME280;26993;48.958;9.330;2022-08-25T07:32:38;98422.44;;;24.12;67.98
41260;BME280;26993;48.958;9.330;2022-08-25T07:35:25;98428.25;;;24.17;67.46
41260;BME280;26993;48.958;9.330;2022-08-25T07:38:11;98423.28;;;24.12;67.83
41260;BME280;26993;48.958;9.330;2022-08-25T07:41:00;98429.28;;;24.30;67.65
41260;BME280;26993;48.958;9.330;2022-08-25T07:43:48;98436.44;;;24.43;67.17
41260;BME280;26993;48.958;9.330;2022-08-25T07:46:36;98430.53;;;24.53;67.20
41260;BME280;26993;48.958;9.330;2022-08-25T07:49:24;98420.28;;;24.63;66.21
41260;BME280;26993;48.958;9.330;2022-08-25T07:52:11;98422.91;;;24.63;66.46
41260;BME280;26993;48.958;9.330;2022-08-25T07:54:58;98427.69;;;24.73;66.37
41260;BME280;26993;48.958;9.330;2022-08-25T07:57:45;98417.53;;;24.95;65.64
41260;BME280;26993;48.958;9.330;2022-08-25T08:00:33;98415.06;;;25.07;64.63
41260;BME280;26993;48.958;9.330;2022-08-25T08:03:22;98422.78;;;25.10;64.91
41260;BME280;26993;48.958;9.330;2022-08-25T08:06:11;98423.16;;;25.18;64.90
41260;BME280;26993;48.958;9.330;2022-08-25T08:08:57;98425.69;;;25.19;64.50
41260;BME280;26993;48.958;9.330;2022-08-25T08:11:44;98427.22;;;25.09;65.09
41260;BME280;26993;48.958;9.330;2022-08-25T08:14:31;98429.72;;;25.54;64.19
41260;BME280;26993;48.958;9.330;2022-08-25T08:17:19;98417.09;;;25.87;62.66
41260;BME280;26993;48.958;9.330;2022-08-25T08:20:09;98425.53;;;25.79;63.99
41260;BME280;26993;48.958;9.330;2022-08-25T08:22:56;98429.03;;;25.92;62.95
41260;BME280;26993;48.958;9.330;2022-08-25T08:25:42;98416.66;;;25.80;62.73
41260;BME280;26993;48.958;9.330;2022-08-25T08:28:29;98414.66;;;26.11;62.91
41260;BME280;26993;48.958;9.330;2022-08-25T08:31:16;98411.72;;;26.16;62.02
41260;BME280;26993;48.958;9.330;2022-08-25T08:34:04;98402.78;;;26.44;61.65
41260;BME280;26993;48.958;9.330;2022-08-25T08:36:52;98397.25;;;26.21;61.42
41260;BME280;26993;48.958;9.330;2022-08-25T08:39:39;98409.94;;;25.89;62.22
41260;BME280;26993;48.958;9.330;2022-08-25T08:42:41;98404.31;;;25.80;62.40
41260;BME280;26993;48.958;9.330;2022-08-25T08:45:33;98403.41;;;25.67;62.52
41260;BME280;26993;48.958;9.330;2022-08-25T08:48:35;98404.66;;;25.89;61.72
41260;BME280;26993;48.958;9.330;2022-08-25T08:51:29;98390.84;;;25.98;61.81
41260;BME280;26993;48.958;9.330;2022-08-25T08:54:22;98384.38;;;26.17;61.55
41260;BME280;26993;48.958;9.330;2022-08-25T08:57:13;98390.00;;;26.38;60.85
41260;BME280;26993;48.958;9.330;2022-08-25T09:00:03;98381.53;;;26.33;60.29
41260;BME280;26993;48.958;9.330;2022-08-25T09:02:56;98381.66;;;26.57;60.24
41260;BME280;26993;48.958;9.330;2022-08-25T09:05:48;98378.59;;;26.63;60.22
41260;BME280;26993;48.958;9.330;2022-08-25T09:08:37;98374.59;;;26.83;58.72
41260;BME280;26993;48.958;9.330;2022-08-25T09:11:40;98374.78;;;27.06;57.20
41260;BME280;26993;48.958;9.330;2022-08-25T09:14:44;98372.47;;;26.88;57.84
41260;BME280;26993;48.958;9.330;2022-08-25T09:17:44;98375.94;;;26.89;57.95
41260;BME280;26993;48.958;9.330;2022-08-25T09:20:48;98367.88;;;27.16;57.28
41260;BME280;26993;48.958;9.330;2022-08-25T09:23:49;98360.31;;;27.36;56.33
41260;BME280;26993;48.958;9.330;2022-08-25T09:26:48;98361.75;;;27.40;57.34
41260;BME280;26993;48.958;9.330;2022-08-25T09:29:49;98365.25;;;27.40;56.49
41260;BME280;26993;48.958;9.330;2022-08-25T09:32:43;98355.22;;;27.46;56.61
41260;BME280;26993;48.958;9.330;2022-08-25T09:35:33;98348.91;;;27.60;55.52
41260;BME280;26993;48.958;9.330;2022-08-25T09:38:21;98343.00;;;27.56;55.19
41260;BME280;26993;48.958;9.330;2022-08-25T09:41:08;98345.03;;;27.77;55.18
41260;BME280;26993;48.958;9.330;2022-08-25T09:43:57;98350.41;;;27.75;54.97
41260;BME280;26993;48.958;9.330;2022-08-25T09:46:54;98346.53;;;27.92;54.72
41260;BME280;26993;48.958;9.330;2022-08-25T09:49:42;98346.16;;;27.61;55.40
41260;BME280;26993;48.958;9.330;2022-08-25T09:52:33;98349.31;;;27.29;55.87
41260;BME280;26993;48.958;9.330;2022-08-25T09:55:25;98347.44;;;27.55;55.50
41260;BME280;26993;48.958;9.330;2022-08-25T09:58:17;98335.50;;;27.74;55.48
41260;BME280;26993;48.958;9.330;2022-08-25T10:01:12;98339.25;;;28.07;54.79
41260;BME280;26993;48.958;9.330;2022-08-25T10:04:01;98323.16;;;27.86;55.15
41260;BME280;26993;48.958;9.330;2022-08-25T10:06:49;98326.53;;;28.24;54.11
41260;BME280;26993;48.958;9.330;2022-08-25T10:09:39;98313.78;;;28.52;53.86
41260;BME280;26993;48.958;9.330;2022-08-25T10:12:30;98314.78;;;28.62;53.50
41260;BME280;26993;48.958;9.330;2022-08-25T10:15:22;98316.06;;;28.68;53.04
41260;BME280;26993;48.958;9.330;2022-08-25T10:18:23;98315.81;;;28.25;53.38
41260;BME280;26993;48.958;9.330;2022-08-25T10:21:12;98323.56;;;28.04;53.84
41260;BME280;26993;48.958;9.330;2022-08-25T10:24:00;98316.94;;;27.98;53.10
41260;BME280;26993;48.958;9.330;2022-08-25T10:26:53;98307.25;;;28.22;52.90
41260;BME280;26993;48.958;9.330;2022-08-25T10:30:03;98299.22;;;28.46;52.59
41260;BME280;26993;48.958;9.330;2022-08-25T10:33:05;98291.16;;;28.47;51.92
41260;BME280;26993;48.958;9.330;2022-08-25T10:36:01;98291.25;;;28.69;51.41
41260;BME280;26993;48.958;9.330;2022-08-25T10:38:53;98286.34;;;28.75;51.34
41260;BME280;26993;48.958;9.330;2022-08-25T10:41:49;98293.56;;;28.62;51.03
41260;BME280;26993;48.958;9.330;2022-08-25T10:44:47;98282.13;;;28.95;51.86
41260;BME280;26993;48.958;9.330;2022-08-25T10:51:48;98279.34;;;28.86;51.58
41260;BME280;26993;48.958;9.330;2022-08-25T10:54:45;98281.88;;;28.87;50.43
41260;BME280;26993;48.958;9.330;2022-08-25T10:57:39;98276.03;;;29.05;50.78
41260;BME280;26993;48.958;9.330;2022-08-25T11:00:36;98277.34;;;29.22;50.04
41260;BME280;26993;48.958;9.330;2022-08-25T11:03:43;98276.69;;;28.86;49.10
41260;BME280;26993;48.958;9.330;2022-08-25T11:06:37;98279.22;;;28.53;50.37
41260;BME280;26993;48.958;9.330;2022-08-25T11:09:41;98278.00;;;28.23;51.33
41260;BME280;26993;48.958;9.330;2022-08-25T11:12:33;98274.22;;;28.03;51.60
41260;BME280;26993;48.958;9.330;2022-08-25T11:15:25;98274.00;;;28.06;52.00
41260;BME280;26993;48.958;9.330;2022-08-25T11:18:14;98268.63;;;27.83;52.70
41260;BME280;26993;48.958;9.330;2022-08-25T11:21:08;98258.34;;;28.03;53.37
41260;BME280;26993;48.958;9.330;2022-08-25T11:24:00;98255.59;;;28.39;52.67
41260;BME280;26993;48.958;9.330;2022-08-25T11:26:54;98254.88;;;28.82;50.95
41260;BME280;26993;48.958;9.330;2022-08-25T11:29:47;98248.16;;;29.33;50.57
41260;BME280;26993;48.958;9.330;2022-08-25T11:32:37;98245.75;;;29.19;50.09
41260;BME280;26993;48.958;9.330;2022-08-25T11:35:30;98235.00;;;29.20;49.25
41260;BME280;26993;48.958;9.330;2022-08-25T11:38:30;98235.00;;;29.20;49.59
41260;BME280;26993;48.958;9.330;2022-08-25T11:41:26;98238.72;;;29.29;49.30
41260;BME280;26993;48.958;9.330;2022-08-25T11:44:31;98244.75;;;29.64;48.98
41260;BME280;26993;48.958;9.330;2022-08-25T11:47:42;98230.50;;;29.65;48.66
41260;BME280;26993;48.958;9.330;2022-08-25T11:50:34;98226.94;;;29.75;49.51
41260;BME280;26993;48.958;9.330;2022-08-25T11:53:24;98230.25;;;29.89;48.93
41260;BME280;26993;48.958;9.330;2022-08-25T11:56:30;98236.66;;;29.65;48.84
41260;BME280;26993;48.958;9.330;2022-08-25T12:02:43;98222.50;;;29.97;48.35
41260;BME280;26993;48.958;9.330;2022-08-25T12:05:50;98230.00;;;29.92;48.46
41260;BME280;26993;48.958;9.330;2022-08-25T12:08:51;98227.72;;;29.45;49.28
41260;BME280;26993;48.958;9.330;2022-08-25T12:11:50;98230.38;;;29.45;49.77
41260;BME280;26993;48.958;9.330;2022-08-25T12:14:45;98227.97;;;29.63;49.41
41260;BME280;26993;48.958;9.330;2022-08-25T12:17:37;98226.28;;;29.41;49.88
41260;BME280;26993;48.958;9.330;2022-08-25T12:23:26;98219.81;;;29.22;49.38
41260;BME280;26993;48.958;9.330;2022-08-25T12:26:19;98215.28;;;29.46;49.59
41260;BME280;26993;48.958;9.330;2022-08-25T12:29:10;98202.66;;;30.01;48.51
41260;BME280;26993;48.958;9.330;2022-08-25T12:32:12;98211.28;;;29.94;47.54
41260;BME280;26993;48.958;9.330;2022-08-25T12:35:15;98220.53;;;29.78;48.56
41260;BME280;26993;48.958;9.330;2022-08-25T12:38:08;98215.09;;;29.80;48.32
41260;BME280;26993;48.958;9.330;2022-08-25T12:41:03;98211.84;;;29.34;49.22
41260;BME280;26993;48.958;9.330;2022-08-25T12:44:19;98212.69;;;29.23;48.71
41260;BME280;26993;48.958;9.330;2022-08-25T12:47:10;98208.00;;;29.26;50.61
41260;BME280;26993;48.958;9.330;2022-08-25T12:50:29;98197.94;;;29.41;48.83
41260;BME280;26993;48.958;9.330;2022-08-25T12:53:27;98212.75;;;29.44;48.86
41260;BME280;26993;48.958;9.330;2022-08-25T12:56:29;98207.50;;;29.54;49.49
41260;BME280;26993;48.958;9.330;2022-08-25T12:59:19;98200.16;;;30.00;48.21
41260;BME280;26993;48.958;9.330;2022-08-25T13:12:01;98197.38;;;29.90;47.41
41260;BME280;26993;48.958;9.330;2022-08-25T13:14:53;98195.53;;;30.02;48.71
41260;BME280;26993;48.958;9.330;2022-08-25T13:17:40;98187.28;;;29.84;48.61
41260;BME280;26993;48.958;9.330;2022-08-25T13:20:27;98195.34;;;29.72;48.46
41260;BME280;26993;48.958;9.330;2022-08-25T13:23:17;98181.78;;;29.75;48.71
41260;BME280;26993;48.958;9.330;2022-08-25T13:26:08;98181.16;;;30.04;48.33
41260;BME280;26993;48.958;9.330;2022-08-25T13:29:01;98171.72;;;30.21;47.91
41260;BME280;26993;48.958;9.330;2022-08-25T13:31:51;98165.06;;;30.47;47.91
41260;BME280;26993;48.958;9.330;2022-08-25T13:34:41;98165.25;;;30.55;46.59
41260;BME280;26993;48.958;9.330;2022-08-25T13:37:28;98163.63;;;30.33;47.70
41260;BME280;26993;48.958;9.330;2022-08-25T13:40:22;98165.47;;;30.42;47.23
41260;BME280;26993;48.958;9.330;2022-08-25T13:43:11;98163.28;;;30.16;46.96
41260;BME280;26993;48.958;9.330;2022-08-25T13:46:00;98167.22;;;30.22;47.74
41260;BME280;26993;48.958;9.330;2022-08-25T13:48:47;98162.59;;;30.14;47.03
41260;BME280;26993;48.958;9.330;2022-08-25T13:51:36;98159.44;;;29.99;47.69
41260;BME280;26993;48.958;9.330;2022-08-25T13:54:26;98147.09;;;30.19;47.94
41260;BME280;26993;48.958;9.330;2022-08-25T13:57:18;98156.59;;;30.22;48.04
41260;BME280;26993;48.958;9.330;2022-08-25T14:00:08;98154.94;;;29.69;48.20
41260;BME280;26993;48.958;9.330;2022-08-25T14:02:57;98152.28;;;29.69;47.64
41260;BME280;26993;48.958;9.330;2022-08-25T14:05:44;98146.94;;;29.59;48.50
41260;BME280;26993;48.958;9.330;2022-08-25T14:08:33;98141.50;;;29.60;48.39
41260;BME280;26993;48.958;9.330;2022-08-25T14:11:27;98144.41;;;29.57;48.36
41260;BME280;26993;48.958;9.330;2022-08-25T14:14:30;98143.03;;;29.63;48.46
41260;BME280;26993;48.958;9.330;2022-08-25T14:17:17;98142.78;;;29.66;47.59
41260;BME280;26993;48.958;9.330;2022-08-25T14:20:17;98139.78;;;29.81;47.54
41260;BME280;26993;48.958;9.330;2022-08-25T14:23:08;98130.13;;;29.80;47.45
41260;BME280;26993;48.958;9.330;2022-08-25T14:25:57;98131.84;;;29.90;47.14
41260;BME280;26993;48.958;9.330;2022-08-25T14:28:44;98135.16;;;30.04;46.49
41260;BME280;26993;48.958;9.330;2022-08-25T14:31:33;98123.75;;;30.23;46.27
41260;BME280;26993;48.958;9.330;2022-08-25T14:34:24;98128.47;;;29.88;47.13
41260;BME280;26993;48.958;9.330;2022-08-25T14:37:17;98130.78;;;29.72;47.54
41260;BME280;26993;48.958;9.330;2022-08-25T14:40:04;98128.00;;;29.73;47.83
41260;BME280;26993;48.958;9.330;2022-08-25T14:42:51;98127.66;;;29.57;47.42
41260;BME280;26993;48.958;9.330;2022-08-25T14:45:40;98123.84;;;29.50;47.85
41260;BME280;26993;48.958;9.330;2022-08-25T14:48:30;98108.97;;;29.68;47.66
41260;BME280;26993;48.958;9.330;2022-08-25T14:51:19;98112.50;;;30.00;47.53
41260;BME280;26993;48.958;9.330;2022-08-25T14:54:10;98120.41;;;30.31;47.84
41260;BME280;26993;48.958;9.330;2022-08-25T14:56:57;98112.31;;;30.32;46.13
41260;BME280;26993;48.958;9.330;2022-08-25T14:59:44;98103.38;;;30.33;46.25
41260;BME280;26993;48.958;9.330;2022-08-25T15:02:34;98101.69;;;30.32;45.85
41260;BME280;26993;48.958;9.330;2022-08-25T15:05:25;98097.75;;;30.36;45.59
41260;BME280;26993;48.958;9.330;2022-08-25T15:08:13;98095.63;;;30.20;46.49
41260;BME280;26993;48.958;9.330;2022-08-25T15:11:18;98103.09;;;30.46;46.42
41260;BME280;26993;48.958;9.330;2022-08-25T15:14:05;98096.53;;;30.41;45.97
41260;BME280;26993;48.958;9.330;2022-08-25T15:16:54;98089.53;;;30.49;46.23
41260;BME280;26993;48.958;9.330;2022-08-25T15:19:42;98085.19;;;30.38;46.05
41260;BME280;26993;48.958;9.330;2022-08-25T15:22:28;98086.56;;;30.33;46.33
41260;BME280;26993;48.958;9.330;2022-08-25T15:25:15;98080.84;;;30.47;45.93